Shady Camp, Colorado
Current Conditions -  °F | °C
As of 5:53 PM on Tuesday 21 Oct 2014 (Local Time) from KLAA Reporting Station
Clear Clear  
Wind Chill: 73°   Ceiling: Unl
Heat Index: 73°   Visibility: 10mi
Dew Point: 45°   Wind: 17mph
Humidity: 37%   Direction: 170°S
Pressure: 29.9"   Gusts: 23mph
Location:  37.885°N, 102.667°W
Report Text: KLAA 212353Z AUTO 17015G20KT 10SM CLR 23/07 A2990 RMK AO2 SLP094 T02280072 10278 20228 56008
Loading
Personal Weather Stations






























Interactive Weather Map
Tropical Storm Tracking
New forecast layout! Learn more

10-Day Weather Forecast

Advertisements
Track Severe Weather on mobile